sensor_id;sensor_type;location;lat;lon;timestamp;P1;durP1;ratioP1;P2;durP2;ratioP2
25169;SDS011;13129;48.012;10.352;2022-10-30T04:30:49;12.50;;;4.88;;
25169;SDS011;13129;48.012;10.352;2022-10-30T04:33:14;8.18;;;4.78;;
25169;SDS011;13129;48.012;10.352;2022-10-30T04:35:40;8.25;;;5.43;;
25169;SDS011;13129;48.012;10.352;2022-10-30T04:38:08;9.85;;;4.80;;
25169;SDS011;13129;48.012;10.352;2022-10-30T04:40:36;10.43;;;5.32;;
25169;SDS011;13129;48.012;10.352;2022-10-30T04:43:03;7.25;;;5.07;;
25169;SDS011;13129;48.012;10.352;2022-10-30T04:45:29;7.38;;;4.80;;
25169;SDS011;13129;48.012;10.352;2022-10-30T04:47:59;8.50;;;4.85;;
25169;SDS011;13129;48.012;10.352;2022-10-30T04:50:31;9.20;;;4.90;;
25169;SDS011;13129;48.012;10.352;2022-10-30T04:53:07;8.02;;;5.07;;
25169;SDS011;13129;48.012;10.352;2022-10-30T04:58:04;7.72;;;4.70;;
25169;SDS011;13129;48.012;10.352;2022-10-30T05:00:31;11.85;;;5.13;;
25169;SDS011;13129;48.012;10.352;2022-10-30T05:03:00;8.10;;;4.97;;
25169;SDS011;13129;48.012;10.352;2022-10-30T05:05:27;7.28;;;5.00;;
25169;SDS011;13129;48.012;10.352;2022-10-30T05:07:53;9.40;;;5.03;;
25169;SDS011;13129;48.012;10.352;2022-10-30T05:10:19;10.55;;;5.32;;
25169;SDS011;13129;48.012;10.352;2022-10-30T05:12:44;10.32;;;6.07;;
25169;SDS011;13129;48.012;10.352;2022-10-30T05:15:11;6.18;;;5.22;;
25169;SDS011;13129;48.012;10.352;2022-10-30T05:17:39;11.20;;;5.43;;
25169;SDS011;13129;48.012;10.352;2022-10-30T05:20:05;8.23;;;5.43;;
25169;SDS011;13129;48.012;10.352;2022-10-30T05:22:32;10.52;;;5.70;;
25169;SDS011;13129;48.012;10.352;2022-10-30T05:24:57;10.60;;;5.60;;
25169;SDS011;13129;48.012;10.352;2022-10-30T05:27:23;9.65;;;5.38;;
25169;SDS011;13129;48.012;10.352;2022-10-30T05:29:49;10.18;;;5.75;;
25169;SDS011;13129;48.012;10.352;2022-10-30T05:32:14;10.05;;;6.40;;
25169;SDS011;13129;48.012;10.352;2022-10-30T05:34:40;10.52;;;6.30;;
25169;SDS011;13129;48.012;10.352;2022-10-30T05:37:06;12.32;;;6.03;;
25169;SDS011;13129;48.012;10.352;2022-10-30T05:39:31;11.75;;;6.57;;
25169;SDS011;13129;48.012;10.352;2022-10-30T05:41:57;8.23;;;5.32;;
25169;SDS011;13129;48.012;10.352;2022-10-30T05:44:23;6.85;;;5.20;;
25169;SDS011;13129;48.012;10.352;2022-10-30T05:46:48;12.45;;;6.00;;
25169;SDS011;13129;48.012;10.352;2022-10-30T05:49:14;9.27;;;6.15;;
25169;SDS011;13129;48.012;10.352;2022-10-30T05:51:40;11.32;;;4.65;;
25169;SDS011;13129;48.012;10.352;2022-10-30T05:54:06;10.00;;;5.25;;
25169;SDS011;13129;48.012;10.352;2022-10-30T05:56:32;8.82;;;4.00;;
25169;SDS011;13129;48.012;10.352;2022-10-30T05:58:57;9.25;;;4.68;;
25169;SDS011;13129;48.012;10.352;2022-10-30T06:01:23;7.93;;;4.13;;
25169;SDS011;13129;48.012;10.352;2022-10-30T06:03:48;5.57;;;3.30;;
25169;SDS011;13129;48.012;10.352;2022-10-30T06:06:14;7.15;;;3.95;;
25169;SDS011;13129;48.012;10.352;2022-10-30T06:08:40;9.13;;;4.20;;
25169;SDS011;13129;48.012;10.352;2022-10-30T06:11:05;11.18;;;4.53;;
25169;SDS011;13129;48.012;10.352;2022-10-30T06:13:31;7.50;;;3.85;;
25169;SDS011;13129;48.012;10.352;2022-10-30T06:15:57;7.35;;;4.55;;
25169;SDS011;13129;48.012;10.352;2022-10-30T06:18:22;8.68;;;4.28;;
25169;SDS011;13129;48.012;10.352;2022-10-30T06:20:48;9.07;;;4.40;;
25169;SDS011;13129;48.012;10.352;2022-10-30T06:23:14;6.75;;;4.03;;
25169;SDS011;13129;48.012;10.352;2022-10-30T06:25:40;8.43;;;4.80;;
25169;SDS011;13129;48.012;10.352;2022-10-30T06:28:08;9.45;;;4.20;;
25169;SDS011;13129;48.012;10.352;2022-10-30T06:30:35;10.02;;;4.25;;
25169;SDS011;13129;48.012;10.352;2022-10-30T06:33:01;7.93;;;4.10;;
25169;SDS011;13129;48.012;10.352;2022-10-30T06:35:28;11.27;;;4.43;;
25169;SDS011;13129;48.012;10.352;2022-10-30T06:37:55;7.70;;;5.22;;
25169;SDS011;13129;48.012;10.352;2022-10-30T06:40:22;6.15;;;4.68;;
25169;SDS011;13129;48.012;10.352;2022-10-30T06:42:49;9.82;;;4.97;;
25169;SDS011;13129;48.012;10.352;2022-10-30T06:45:17;7.47;;;4.63;;
25169;SDS011;13129;48.012;10.352;2022-10-30T06:47:44;10.77;;;5.20;;
25169;SDS011;13129;48.012;10.352;2022-10-30T06:50:11;10.00;;;5.13;;
25169;SDS011;13129;48.012;10.352;2022-10-30T06:52:39;9.35;;;5.53;;
25169;SDS011;13129;48.012;10.352;2022-10-30T06:55:05;9.70;;;5.43;;
25169;SDS011;13129;48.012;10.352;2022-10-30T06:57:31;5.95;;;4.82;;
25169;SDS011;13129;48.012;10.352;2022-10-30T06:59:57;11.45;;;7.53;;
25169;SDS011;13129;48.012;10.352;2022-10-30T07:02:22;30.05;;;16.48;;
25169;SDS011;13129;48.012;10.352;2022-10-30T07:04:48;30.35;;;19.17;;
25169;SDS011;13129;48.012;10.352;2022-10-30T07:07:14;28.52;;;18.75;;
25169;SDS011;13129;48.012;10.352;2022-10-30T07:09:41;27.77;;;16.95;;
25169;SDS011;13129;48.012;10.352;2022-10-30T07:12:07;18.45;;;12.88;;
25169;SDS011;13129;48.012;10.352;2022-10-30T07:14:33;16.15;;;10.40;;
25169;SDS011;13129;48.012;10.352;2022-10-30T07:16:59;14.48;;;8.73;;
25169;SDS011;13129;48.012;10.352;2022-10-30T07:19:25;13.05;;;8.27;;
25169;SDS011;13129;48.012;10.352;2022-10-30T07:21:51;15.60;;;8.05;;
25169;SDS011;13129;48.012;10.352;2022-10-30T07:24:17;13.90;;;7.88;;
25169;SDS011;13129;48.012;10.352;2022-10-30T07:26:43;11.63;;;6.70;;
25169;SDS011;13129;48.012;10.352;2022-10-30T07:29:08;11.10;;;8.00;;
25169;SDS011;13129;48.012;10.352;2022-10-30T07:31:34;10.18;;;6.15;;
25169;SDS011;13129;48.012;10.352;2022-10-30T07:34:00;12.32;;;6.72;;
25169;SDS011;13129;48.012;10.352;2022-10-30T07:36:25;13.70;;;7.13;;
25169;SDS011;13129;48.012;10.352;2022-10-30T07:38:51;8.65;;;6.57;;
25169;SDS011;13129;48.012;10.352;2022-10-30T07:41:17;12.15;;;5.97;;
25169;SDS011;13129;48.012;10.352;2022-10-30T07:43:44;10.68;;;6.45;;
25169;SDS011;13129;48.012;10.352;2022-10-30T07:46:10;11.02;;;5.93;;
25169;SDS011;13129;48.012;10.352;2022-10-30T07:48:36;10.57;;;5.75;;
25169;SDS011;13129;48.012;10.352;2022-10-30T07:51:02;7.45;;;4.80;;
25169;SDS011;13129;48.012;10.352;2022-10-30T07:53:28;12.10;;;5.82;;
25169;SDS011;13129;48.012;10.352;2022-10-30T07:55:54;8.93;;;5.03;;
25169;SDS011;13129;48.012;10.352;2022-10-30T07:58:20;8.13;;;5.63;;
25169;SDS011;13129;48.012;10.352;2022-10-30T08:00:45;7.47;;;5.40;;
25169;SDS011;13129;48.012;10.352;2022-10-30T08:03:12;8.10;;;4.68;;
25169;SDS011;13129;48.012;10.352;2022-10-30T08:05:38;10.02;;;4.82;;
25169;SDS011;13129;48.012;10.352;2022-10-30T08:08:04;7.18;;;4.20;;
25169;SDS011;13129;48.012;10.352;2022-10-30T08:10:31;7.38;;;3.72;;
25169;SDS011;13129;48.012;10.352;2022-10-30T08:12:57;10.13;;;4.15;;
25169;SDS011;13129;48.012;10.352;2022-10-30T08:15:23;8.98;;;4.00;;
25169;SDS011;13129;48.012;10.352;2022-10-30T08:17:49;6.88;;;4.03;;
25169;SDS011;13129;48.012;10.352;2022-10-30T08:20:16;8.00;;;3.90;;
25169;SDS011;13129;48.012;10.352;2022-10-30T08:22:44;9.35;;;4.68;;
25169;SDS011;13129;48.012;10.352;2022-10-30T08:25:11;8.82;;;3.80;;
25169;SDS011;13129;48.012;10.352;2022-10-30T08:27:37;7.43;;;3.55;;
25169;SDS011;13129;48.012;10.352;2022-10-30T08:30:03;7.53;;;3.92;;
25169;SDS011;13129;48.012;10.352;2022-10-30T08:32:29;6.60;;;4.03;;
25169;SDS011;13129;48.012;10.352;2022-10-30T08:34:54;6.88;;;3.95;;
25169;SDS011;13129;48.012;10.352;2022-10-30T08:37:20;9.02;;;4.40;;
25169;SDS011;13129;48.012;10.352;2022-10-30T08:39:45;9.20;;;4.05;;
25169;SDS011;13129;48.012;10.352;2022-10-30T08:42:11;7.93;;;4.03;;
25169;SDS011;13129;48.012;10.352;2022-10-30T08:44:37;10.95;;;4.57;;
25169;SDS011;13129;48.012;10.352;2022-10-30T08:47:02;9.25;;;4.97;;
25169;SDS011;13129;48.012;10.352;2022-10-30T08:49:28;7.18;;;4.60;;
25169;SDS011;13129;48.012;10.352;2022-10-30T08:51:53;9.13;;;4.32;;
25169;SDS011;13129;48.012;10.352;2022-10-30T08:54:19;11.35;;;4.55;;
25169;SDS011;13129;48.012;10.352;2022-10-30T08:56:45;11.52;;;5.22;;
25169;SDS011;13129;48.012;10.352;2022-10-30T08:59:10;11.32;;;5.28;;
25169;SDS011;13129;48.012;10.352;2022-10-30T09:01:36;8.13;;;4.40;;
25169;SDS011;13129;48.012;10.352;2022-10-30T09:04:01;11.32;;;4.47;;
25169;SDS011;13129;48.012;10.352;2022-10-30T09:06:28;10.20;;;4.95;;
25169;SDS011;13129;48.012;10.352;2022-10-30T09:08:55;12.90;;;5.43;;
25169;SDS011;13129;48.012;10.352;2022-10-30T09:11:21;10.25;;;5.80;;
25169;SDS011;13129;48.012;10.352;2022-10-30T09:13:46;12.05;;;4.97;;
25169;SDS011;13129;48.012;10.352;2022-10-30T09:16:12;9.38;;;4.82;;
25169;SDS011;13129;48.012;10.352;2022-10-30T09:18:38;7.55;;;4.75;;
25169;SDS011;13129;48.012;10.352;2022-10-30T09:21:03;7.22;;;4.65;;
25169;SDS011;13129;48.012;10.352;2022-10-30T09:23:29;12.05;;;5.13;;
25169;SDS011;13129;48.012;10.352;2022-10-30T09:25:57;10.90;;;5.00;;
25169;SDS011;13129;48.012;10.352;2022-10-30T09:28:23;8.25;;;4.55;;
25169;SDS011;13129;48.012;10.352;2022-10-30T09:30:49;11.95;;;5.18;;
25169;SDS011;13129;48.012;10.352;2022-10-30T09:33:16;11.75;;;5.40;;
25169;SDS011;13129;48.012;10.352;2022-10-30T09:35:42;8.82;;;3.95;;
25169;SDS011;13129;48.012;10.352;2022-10-30T09:38:08;7.47;;;4.35;;
25169;SDS011;13129;48.012;10.352;2022-10-30T09:43:58;8.52;;;4.43;;
25169;SDS011;13129;48.012;10.352;2022-10-30T09:46:48;9.93;;;4.18;;
25169;SDS011;13129;48.012;10.352;2022-10-30T10:05:42;5.80;;;3.63;;
25169;SDS011;13129;48.012;10.352;2022-10-30T10:08:13;9.77;;;3.35;;
25169;SDS011;13129;48.012;10.352;2022-10-30T10:10:44;9.43;;;3.85;;
25169;SDS011;13129;48.012;10.352;2022-10-30T10:14:14;9.32;;;4.03;;
25169;SDS011;13129;48.012;10.352;2022-10-30T10:16:21;7.35;;;3.47;;
25169;SDS011;13129;48.012;10.352;2022-10-30T10:18:54;8.40;;;3.47;;
25169;SDS011;13129;48.012;10.352;2022-10-30T10:21:48;8.70;;;3.45;;
25169;SDS011;13129;48.012;10.352;2022-10-30T10:24:32;9.60;;;3.60;;
25169;SDS011;13129;48.012;10.352;2022-10-30T10:32:33;10.70;;;3.50;;
25169;SDS011;13129;48.012;10.352;2022-10-30T10:35:29;9.95;;;2.83;;
25169;SDS011;13129;48.012;10.352;2022-10-30T10:41:00;7.43;;;2.78;;
25169;SDS011;13129;48.012;10.352;2022-10-30T10:46:41;7.03;;;2.97;;
25169;SDS011;13129;48.012;10.352;2022-10-30T10:52:09;10.63;;;3.63;;
25169;SDS011;13129;48.012;10.352;2022-10-30T10:55:14;9.32;;;2.95;;
25169;SDS011;13129;48.012;10.352;2022-10-30T10:57:46;6.65;;;2.92;;
25169;SDS011;13129;48.012;10.352;2022-10-30T11:00:15;9.65;;;3.08;;
25169;SDS011;13129;48.012;10.352;2022-10-30T11:08:19;7.68;;;2.90;;
25169;SDS011;13129;48.012;10.352;2022-10-30T11:11:05;8.32;;;2.78;;
25169;SDS011;13129;48.012;10.352;2022-10-30T11:13:39;6.90;;;2.67;;
25169;SDS011;13129;48.012;10.352;2022-10-30T11:18:51;8.18;;;2.70;;
25169;SDS011;13129;48.012;10.352;2022-10-30T11:21:22;9.43;;;2.60;;
25169;SDS011;13129;48.012;10.352;2022-10-30T11:23:49;10.10;;;3.05;;
25169;SDS011;13129;48.012;10.352;2022-10-30T11:28:57;7.28;;;2.90;;
25169;SDS011;13129;48.012;10.352;2022-10-30T11:31:37;5.63;;;2.75;;
25169;SDS011;13129;48.012;10.352;2022-10-30T11:36:49;8.80;;;2.65;;
25169;SDS011;13129;48.012;10.352;2022-10-30T11:39:26;9.57;;;3.20;;
25169;SDS011;13129;48.012;10.352;2022-10-30T11:44:40;8.88;;;3.10;;
25169;SDS011;13129;48.012;10.352;2022-10-30T11:47:11;5.35;;;2.95;;
25169;SDS011;13129;48.012;10.352;2022-10-30T11:49:50;14.32;;;3.03;;
25169;SDS011;13129;48.012;10.352;2022-10-30T11:52:25;9.13;;;3.42;;
25169;SDS011;13129;48.012;10.352;2022-10-30T11:54:59;8.32;;;2.90;;
25169;SDS011;13129;48.012;10.352;2022-10-30T11:57:33;7.32;;;2.90;;
25169;SDS011;13129;48.012;10.352;2022-10-30T12:00:01;6.57;;;2.40;;
25169;SDS011;13129;48.012;10.352;2022-10-30T12:02:38;5.57;;;2.33;;
25169;SDS011;13129;48.012;10.352;2022-10-30T12:07:49;5.47;;;2.47;;
25169;SDS011;13129;48.012;10.352;2022-10-30T12:13:17;7.35;;;2.80;;
25169;SDS011;13129;48.012;10.352;2022-10-30T12:15:49;9.55;;;2.85;;
25169;SDS011;13129;48.012;10.352;2022-10-30T12:18:27;8.95;;;2.92;;
25169;SDS011;13129;48.012;10.352;2022-10-30T12:20:54;5.30;;;2.95;;
25169;SDS011;13129;48.012;10.352;2022-10-30T12:23:22;5.57;;;2.58;;
25169;SDS011;13129;48.012;10.352;2022-10-30T12:26:00;7.00;;;2.83;;
25169;SDS011;13129;48.012;10.352;2022-10-30T12:28:34;6.05;;;2.72;;
25169;SDS011;13129;48.012;10.352;2022-10-30T12:31:15;6.47;;;2.90;;
25169;SDS011;13129;48.012;10.352;2022-10-30T12:33:57;5.03;;;2.63;;
25169;SDS011;13129;48.012;10.352;2022-10-30T12:37:07;8.47;;;2.70;;
25169;SDS011;13129;48.012;10.352;2022-10-30T12:42:24;6.18;;;2.58;;
25169;SDS011;13129;48.012;10.352;2022-10-30T12:44:52;8.50;;;2.63;;
25169;SDS011;13129;48.012;10.352;2022-10-30T12:50:37;5.43;;;2.58;;
25169;SDS011;13129;48.012;10.352;2022-10-30T12:55:38;6.28;;;2.72;;
25169;SDS011;13129;48.012;10.352;2022-10-30T13:06:34;6.40;;;2.67;;
25169;SDS011;13129;48.012;10.352;2022-10-30T13:15:01;7.35;;;2.85;;
25169;SDS011;13129;48.012;10.352;2022-10-30T13:17:30;6.87;;;2.90;;
25169;SDS011;13129;48.012;10.352;2022-10-30T13:19:56;5.70;;;2.47;;
25169;SDS011;13129;48.012;10.352;2022-10-30T13:25:21;7.45;;;2.83;;
25169;SDS011;13129;48.012;10.352;2022-10-30T13:27:59;8.57;;;2.47;;
25169;SDS011;13129;48.012;10.352;2022-10-30T13:30:37;8.27;;;2.95;;
25169;SDS011;13129;48.012;10.352;2022-10-30T13:33:13;7.65;;;2.45;;
25169;SDS011;13129;48.012;10.352;2022-10-30T13:46:49;6.15;;;3.20;;
25169;SDS011;13129;48.012;10.352;2022-10-30T13:49:47;8.30;;;3.60;;
25169;SDS011;13129;48.012;10.352;2022-10-30T13:52:17;8.65;;;2.60;;
25169;SDS011;13129;48.012;10.352;2022-10-30T13:57:32;8.00;;;3.17;;
25169;SDS011;13129;48.012;10.352;2022-10-30T14:02:46;5.22;;;2.83;;
25169;SDS011;13129;48.012;10.352;2022-10-30T14:05:31;8.35;;;3.13;;
25169;SDS011;13129;48.012;10.352;2022-10-30T14:15:54;8.80;;;3.30;;
25169;SDS011;13129;48.012;10.352;2022-10-30T14:20:54;8.27;;;3.15;;
25169;SDS011;13129;48.012;10.352;2022-10-30T14:23:22;10.68;;;3.50;;
25169;SDS011;13129;48.012;10.352;2022-10-30T14:28:27;7.57;;;3.30;;
25169;SDS011;13129;48.012;10.352;2022-10-30T14:33:44;4.37;;;2.43;;
25169;SDS011;13129;48.012;10.352;2022-10-30T14:38:50;5.40;;;2.65;;
25169;SDS011;13129;48.012;10.352;2022-10-30T14:41:20;11.50;;;3.00;;
25169;SDS011;13129;48.012;10.352;2022-10-30T14:46:42;11.38;;;3.85;;
25169;SDS011;13129;48.012;10.352;2022-10-30T14:49:25;8.05;;;2.85;;
25169;SDS011;13129;48.012;10.352;2022-10-30T14:52:15;7.10;;;3.10;;
25169;SDS011;13129;48.012;10.352;2022-10-30T15:03:04;9.57;;;3.38;;
25169;SDS011;13129;48.012;10.352;2022-10-30T15:11:06;7.25;;;3.72;;
25169;SDS011;13129;48.012;10.352;2022-10-30T15:13:58;7.55;;;2.75;;
25169;SDS011;13129;48.012;10.352;2022-10-30T15:16:27;7.60;;;3.20;;
25169;SDS011;13129;48.012;10.352;2022-10-30T15:18:56;5.53;;;3.55;;
25169;SDS011;13129;48.012;10.352;2022-10-30T15:21:26;8.38;;;2.90;;
25169;SDS011;13129;48.012;10.352;2022-10-30T15:23:57;6.43;;;3.30;;
25169;SDS011;13129;48.012;10.352;2022-10-30T15:26:28;6.53;;;2.90;;
25169;SDS011;13129;48.012;10.352;2022-10-30T15:28:59;7.32;;;3.30;;
25169;SDS011;13129;48.012;10.352;2022-10-30T15:31:26;8.27;;;4.03;;
25169;SDS011;13129;48.012;10.352;2022-10-30T15:33:53;5.45;;;3.00;;
25169;SDS011;13129;48.012;10.352;2022-10-30T15:36:32;13.05;;;3.47;;
25169;SDS011;13129;48.012;10.352;2022-10-30T15:39:11;7.43;;;3.30;;
25169;SDS011;13129;48.012;10.352;2022-10-30T15:41:48;8.35;;;3.47;;
25169;SDS011;13129;48.012;10.352;2022-10-30T15:44:23;7.25;;;3.47;;
25169;SDS011;13129;48.012;10.352;2022-10-30T15:46:51;7.82;;;3.70;;
25169;SDS011;13129;48.012;10.352;2022-10-30T15:49:21;9.20;;;3.58;;
25169;SDS011;13129;48.012;10.352;2022-10-30T15:51:53;6.90;;;3.13;;
25169;SDS011;13129;48.012;10.352;2022-10-30T15:54:19;7.43;;;3.03;;
25169;SDS011;13129;48.012;10.352;2022-10-30T15:56:46;10.73;;;3.58;;
25169;SDS011;13129;48.012;10.352;2022-10-30T15:59:21;9.73;;;3.40;;
25169;SDS011;13129;48.012;10.352;2022-10-30T16:01:49;12.05;;;5.55;;
25169;SDS011;13129;48.012;10.352;2022-10-30T16:04:18;12.70;;;5.22;;
25169;SDS011;13129;48.012;10.352;2022-10-30T16:06:56;7.70;;;4.57;;
25169;SDS011;13129;48.012;10.352;2022-10-30T16:09:25;10.02;;;6.97;;
25169;SDS011;13129;48.012;10.352;2022-10-30T16:11:57;8.27;;;6.72;;
25169;SDS011;13129;48.012;10.352;2022-10-30T16:14:25;11.75;;;5.93;;
25169;SDS011;13129;48.012;10.352;2022-10-30T16:16:52;9.23;;;4.43;;
25169;SDS011;13129;48.012;10.352;2022-10-30T16:19:22;10.65;;;4.95;;
25169;SDS011;13129;48.012;10.352;2022-10-30T16:21:58;8.80;;;4.40;;
25169;SDS011;13129;48.012;10.352;2022-10-30T16:24:31;9.00;;;3.85;;
25169;SDS011;13129;48.012;10.352;2022-10-30T16:27:02;5.00;;;3.13;;
25169;SDS011;13129;48.012;10.352;2022-10-30T16:29:39;6.07;;;3.35;;
25169;SDS011;13129;48.012;10.352;2022-10-30T16:32:07;5.60;;;3.80;;
25169;SDS011;13129;48.012;10.352;2022-10-30T16:34:39;9.32;;;3.75;;
25169;SDS011;13129;48.012;10.352;2022-10-30T16:37:08;10.13;;;4.00;;
25169;SDS011;13129;48.012;10.352;2022-10-30T16:39:38;8.05;;;3.45;;
25169;SDS011;13129;48.012;10.352;2022-10-30T16:42:05;6.03;;;3.25;;
25169;SDS011;13129;48.012;10.352;2022-10-30T16:44:32;9.30;;;4.00;;
25169;SDS011;13129;48.012;10.352;2022-10-30T16:49:57;11.20;;;5.28;;
25169;SDS011;13129;48.012;10.352;2022-10-30T16:52:24;11.25;;;4.65;;
25169;SDS011;13129;48.012;10.352;2022-10-30T16:55:00;11.68;;;7.15;;
25169;SDS011;13129;48.012;10.352;2022-10-30T16:57:42;8.10;;;4.93;;
25169;SDS011;13129;48.012;10.352;2022-10-30T17:00:17;10.18;;;6.88;;
25169;SDS011;13129;48.012;10.352;2022-10-30T17:02:45;12.57;;;5.75;;
25169;SDS011;13129;48.012;10.352;2022-10-30T17:07:56;10.80;;;6.20;;
25169;SDS011;13129;48.012;10.352;2022-10-30T17:10:33;9.98;;;5.53;;
25169;SDS011;13129;48.012;10.352;2022-10-30T17:18:40;6.60;;;3.88;;
25169;SDS011;13129;48.012;10.352;2022-10-30T17:21:07;7.65;;;3.40;;
25169;SDS011;13129;48.012;10.352;2022-10-30T17:23:58;7.00;;;3.95;;
25169;SDS011;13129;48.012;10.352;2022-10-30T17:26:24;6.63;;;4.27;;
25169;SDS011;13129;48.012;10.352;2022-10-30T17:28:52;5.53;;;4.20;;
25169;SDS011;13129;48.012;10.352;2022-10-30T17:34:28;5.65;;;3.47;;
25169;SDS011;13129;48.012;10.352;2022-10-30T17:36:37;8.80;;;4.45;;
25169;SDS011;13129;48.012;10.352;2022-10-30T17:39:03;9.98;;;4.78;;
25169;SDS011;13129;48.012;10.352;2022-10-30T17:41:29;8.93;;;4.95;;
25169;SDS011;13129;48.012;10.352;2022-10-30T17:43:56;8.48;;;5.03;;
25169;SDS011;13129;48.012;10.352;2022-10-30T17:46:25;9.90;;;7.18;;
25169;SDS011;13129;48.012;10.352;2022-10-30T17:48:51;9.30;;;5.45;;
25169;SDS011;13129;48.012;10.352;2022-10-30T17:51:19;8.40;;;6.18;;
25169;SDS011;13129;48.012;10.352;2022-10-30T17:53:45;8.13;;;6.10;;
25169;SDS011;13129;48.012;10.352;2022-10-30T17:56:13;9.60;;;6.55;;
25169;SDS011;13129;48.012;10.352;2022-10-30T17:58:41;10.43;;;7.50;;
25169;SDS011;13129;48.012;10.352;2022-10-30T18:01:09;10.82;;;8.15;;
25169;SDS011;13129;48.012;10.352;2022-10-30T18:03:42;11.48;;;8.05;;
25169;SDS011;13129;48.012;10.352;2022-10-30T18:06:08;17.38;;;10.45;;
25169;SDS011;13129;48.012;10.352;2022-10-30T18:08:41;10.48;;;6.07;;
25169;SDS011;13129;48.012;10.352;2022-10-30T18:11:11;10.05;;;7.45;;
25169;SDS011;13129;48.012;10.352;2022-10-30T18:13:38;14.48;;;8.07;;
25169;SDS011;13129;48.012;10.352;2022-10-30T18:16:05;13.25;;;7.20;;
25169;SDS011;13129;48.012;10.352;2022-10-30T18:18:33;12.80;;;7.50;;
25169;SDS011;13129;48.012;10.352;2022-10-30T18:20:59;11.00;;;7.00;;
25169;SDS011;13129;48.012;10.352;2022-10-30T18:23:25;9.48;;;6.93;;
25169;SDS011;13129;48.012;10.352;2022-10-30T18:25:51;11.30;;;6.47;;
25169;SDS011;13129;48.012;10.352;2022-10-30T18:28:17;9.23;;;6.88;;
25169;SDS011;13129;48.012;10.352;2022-10-30T18:30:44;9.73;;;7.00;;
25169;SDS011;13129;48.012;10.352;2022-10-30T18:33:15;10.85;;;7.35;;
25169;SDS011;13129;48.012;10.352;2022-10-30T18:35:41;11.55;;;7.88;;
25169;SDS011;13129;48.012;10.352;2022-10-30T18:38:07;12.00;;;7.32;;
25169;SDS011;13129;48.012;10.352;2022-10-30T18:40:33;13.43;;;7.78;;
25169;SDS011;13129;48.012;10.352;2022-10-30T18:42:59;10.15;;;7.00;;
25169;SDS011;13129;48.012;10.352;2022-10-30T18:45:26;9.50;;;6.95;;
25169;SDS011;13129;48.012;10.352;2022-10-30T18:48:03;11.30;;;6.53;;
25169;SDS011;13129;48.012;10.352;2022-10-30T18:50:29;7.78;;;5.47;;
25169;SDS011;13129;48.012;10.352;2022-10-30T18:52:56;7.47;;;4.90;;
25169;SDS011;13129;48.012;10.352;2022-10-30T18:55:24;7.43;;;4.28;;
25169;SDS011;13129;48.012;10.352;2022-10-30T18:57:55;8.93;;;4.95;;
25169;SDS011;13129;48.012;10.352;2022-10-30T19:00:21;6.75;;;4.75;;
25169;SDS011;13129;48.012;10.352;2022-10-30T19:02:53;10.27;;;5.40;;
25169;SDS011;13129;48.012;10.352;2022-10-30T19:05:23;9.27;;;5.80;;
25169;SDS011;13129;48.012;10.352;2022-10-30T19:07:55;11.07;;;6.88;;
25169;SDS011;13129;48.012;10.352;2022-10-30T19:10:22;9.90;;;5.90;;
25169;SDS011;13129;48.012;10.352;2022-10-30T19:12:55;10.75;;;6.45;;
25169;SDS011;13129;48.012;10.352;2022-10-30T19:15:42;8.50;;;7.20;;
25169;SDS011;13129;48.012;10.352;2022-10-30T19:18:10;9.93;;;7.10;;
25169;SDS011;13129;48.012;10.352;2022-10-30T19:20:36;10.27;;;7.65;;
25169;SDS011;13129;48.012;10.352;2022-10-30T19:23:04;11.07;;;6.90;;
25169;SDS011;13129;48.012;10.352;2022-10-30T19:25:37;10.35;;;8.23;;
25169;SDS011;13129;48.012;10.352;2022-10-30T19:28:05;10.57;;;7.22;;
25169;SDS011;13129;48.012;10.352;2022-10-30T19:30:31;11.10;;;7.75;;
25169;SDS011;13129;48.012;10.352;2022-10-30T19:32:56;12.90;;;8.80;;
25169;SDS011;13129;48.012;10.352;2022-10-30T19:35:22;11.85;;;8.32;;
25169;SDS011;13129;48.012;10.352;2022-10-30T19:37:51;12.20;;;6.78;;
25169;SDS011;13129;48.012;10.352;2022-10-30T19:40:23;10.05;;;7.03;;
25169;SDS011;13129;48.012;10.352;2022-10-30T19:42:51;9.90;;;7.63;;
25169;SDS011;13129;48.012;10.352;2022-10-30T19:45:18;10.13;;;7.68;;
25169;SDS011;13129;48.012;10.352;2022-10-30T19:47:46;14.45;;;9.05;;
25169;SDS011;13129;48.012;10.352;2022-10-30T19:50:16;15.30;;;6.30;;
25169;SDS011;13129;48.012;10.352;2022-10-30T19:52:48;10.43;;;7.00;;
25169;SDS011;13129;48.012;10.352;2022-10-30T19:55:15;10.88;;;6.57;;
25169;SDS011;13129;48.012;10.352;2022-10-30T19:57:42;9.45;;;6.50;;
25169;SDS011;13129;48.012;10.352;2022-10-30T20:00:13;10.15;;;7.32;;
25169;SDS011;13129;48.012;10.352;2022-10-30T20:02:43;7.82;;;6.68;;
25169;SDS011;13129;48.012;10.352;2022-10-30T20:05:11;8.63;;;6.95;;
25169;SDS011;13129;48.012;10.352;2022-10-30T20:07:39;13.50;;;7.15;;
25169;SDS011;13129;48.012;10.352;2022-10-30T20:10:16;9.77;;;7.15;;
25169;SDS011;13129;48.012;10.352;2022-10-30T20:12:45;11.55;;;7.80;;
25169;SDS011;13129;48.012;10.352;2022-10-30T20:15:16;15.15;;;8.77;;
25169;SDS011;13129;48.012;10.352;2022-10-30T20:17:44;12.18;;;8.10;;
25169;SDS011;13129;48.012;10.352;2022-10-30T20:20:15;16.55;;;11.68;;
25169;SDS011;13129;48.012;10.352;2022-10-30T20:22:54;13.48;;;9.50;;
25169;SDS011;13129;48.012;10.352;2022-10-30T20:25:21;13.43;;;8.35;;
25169;SDS011;13129;48.012;10.352;2022-10-30T20:27:47;13.70;;;7.65;;
25169;SDS011;13129;48.012;10.352;2022-10-30T20:30:18;10.15;;;8.68;;
25169;SDS011;13129;48.012;10.352;2022-10-30T20:32:46;14.68;;;9.60;;
25169;SDS011;13129;48.012;10.352;2022-10-30T20:35:16;11.90;;;8.25;;
25169;SDS011;13129;48.012;10.352;2022-10-30T20:37:43;12.43;;;8.75;;
25169;SDS011;13129;48.012;10.352;2022-10-30T20:40:19;11.65;;;8.60;;
25169;SDS011;13129;48.012;10.352;2022-10-30T20:42:45;13.80;;;8.60;;
25169;SDS011;13129;48.012;10.352;2022-10-30T20:45:18;10.48;;;8.15;;
25169;SDS011;13129;48.012;10.352;2022-10-30T20:47:46;13.25;;;9.15;;
25169;SDS011;13129;48.012;10.352;2022-10-30T20:50:13;10.27;;;8.35;;
25169;SDS011;13129;48.012;10.352;2022-10-30T20:52:39;12.98;;;9.00;;
25169;SDS011;13129;48.012;10.352;2022-10-30T20:55:05;12.00;;;8.93;;
25169;SDS011;13129;48.012;10.352;2022-10-30T20:57:32;11.52;;;8.60;;
25169;SDS011;13129;48.012;10.352;2022-10-30T20:59:58;10.02;;;8.93;;
25169;SDS011;13129;48.012;10.352;2022-10-30T21:02:24;13.82;;;8.75;;
25169;SDS011;13129;48.012;10.352;2022-10-30T21:04:49;8.73;;;7.40;;
25169;SDS011;13129;48.012;10.352;2022-10-30T21:07:15;13.23;;;9.70;;
25169;SDS011;13129;48.012;10.352;2022-10-30T21:09:41;8.98;;;8.00;;
25169;SDS011;13129;48.012;10.352;2022-10-30T21:12:07;12.25;;;7.55;;
25169;SDS011;13129;48.012;10.352;2022-10-30T21:14:33;13.43;;;8.45;;
25169;SDS011;13129;48.012;10.352;2022-10-30T21:16:58;11.88;;;9.18;;
25169;SDS011;13129;48.012;10.352;2022-10-30T21:19:25;13.25;;;8.90;;
25169;SDS011;13129;48.012;10.352;2022-10-30T21:21:51;14.70;;;9.98;;
25169;SDS011;13129;48.012;10.352;2022-10-30T21:24:16;12.23;;;9.30;;
25169;SDS011;13129;48.012;10.352;2022-10-30T21:26:42;12.65;;;9.27;;
25169;SDS011;13129;48.012;10.352;2022-10-30T21:29:08;10.20;;;8.40;;
25169;SDS011;13129;48.012;10.352;2022-10-30T21:31:34;14.57;;;9.50;;
25169;SDS011;13129;48.012;10.352;2022-10-30T21:34:00;11.73;;;8.15;;
25169;SDS011;13129;48.012;10.352;2022-10-30T21:36:25;13.20;;;8.90;;
25169;SDS011;13129;48.012;10.352;2022-10-30T21:38:51;12.10;;;7.93;;
25169;SDS011;13129;48.012;10.352;2022-10-30T21:41:18;13.30;;;8.48;;